Turner, MI

2:33 PM EST on November 11, 2019 (GMT -0500)
Twining | | Change Station
Active Advisory: Winter Weather Advisory

Elev 636 ft 44.11 °N, 83.81 °W | Updated 3 minutes ago

Snow
Snow
23 °F
Feels Like 15 °F
N
6.8
Wind Variable Wind from NNE
Gusts 0.0 mph

Today
High -- | Low -- °F
--% Chance of Precip.
Yesterday
High -- | Low -- °F
Precip. -- in
Pressure 30.18 in
Visibility 1.8 miles
Clouds Mostly Cloudy 1500 ft
Mostly Cloudy 2000 ft
Overcast 2600 ft
Windchill 15 °F
Dew Point 20 °F
Humidity 87%
Rainfall 0.00 in
Snow Depth Not available.
7:24 AM 5:12 PM
Waxing Gibbous, 99% visible
METAR KOSC 111915Z AUTO 36012G16KT 1 3/4SM -SN BKN015 BKN020 OVC026 M04/M07 A3018 RMK AO2 T10441070
Pressure 30.18 in
Visibility 1.8 miles
Clouds Mostly Cloudy 1500 ft
Mostly Cloudy 2000 ft
Overcast 2600 ft
Windchill 15 °F
Dew Point 20 °F
Humidity 87%
Rainfall 0.00 in
Snow Depth Not available.
7:24 AM 5:12 PM
Waxing Gibbous, 99% visible
METAR KOSC 111915Z AUTO 36012G16KT 1 3/4SM -SN BKN015 BKN020 OVC026 M04/M07 A3018 RMK AO2 T10441070

Get Your Daily Forecast Email!

Thanks for signing up!

Be on the lookout for a verification email in your inbox.

You'll start receiving severe weather alerts in your inbox..

×

10-Day Weather Forecast

Almanac

Astronomy

Nov. 11, 2019 Rise Set
Actual Time
Civil Twilight
Nautical Twilight
Astronomical Twilight
Moon
Length of Visible Light
Length of Day
Tomorrow will be .
, % of the Moon is Illuminated

Today's Extremes

State Highs State Lows

Community

WunderPhotos

Category 6

Welcome to Category 6. This is the collective home for Weather Underground's featured writeups by Dr. Jeff Masters (right), Bob Henson (left), Chris Burt, and other regular contributors.

Nearby

Air Quality

  Air Quality AQ Index Pollutant
Not available.

Snow Depth

Station Depth Elevation

Earthquake Activity

City Distance Mag. Time & Date
Minimum magnitude displayed is 2.5.

Coastal Water Temperatures

Place Temperature

Stations

Nearby Weather Stations

Station Location Temp. Windchill Dew Point Humidity Wind Precip. Elev Updated Type
                   

Watches & Warnings

Winter Weather Advisory
Issued: 10:06 AM EST Nov. 11, 2019 – National Weather Service

... Winter Weather Advisory in effect until 6 PM EST this
evening...

* what... periods of snow. Additional snow accumulations of 2 to 4
inches through the day.

* Where... Alcona, Ogemaw, Iosco, Gladwin and Arenac counties.

* When... until 6 PM EST this evening.

* Impacts... plan on slippery Road conditions and reduced
visibilities. The hazardous conditions could impact the evening
commute.

* Additional details... snow will continue to fall across the
region through the afternoon hours. Some lake enhancement will
occur along the Lake Huron shore from Harrisville through East
Tawas.

Precautionary/preparedness actions...

Slow down and use caution while traveling.